Time;durP1;ratioP1;P1;durP2;ratioP2;P2;SDS_P1;SDS_P2;PMS_P1;PMS_P2;Temp;Humidity;BMP_temperature;BMP_pressure;BME280_temperature;BME280_humidity;BME280_pressure;Samples;Min_cycle;Max_cycle;Signal;HPM_P1;HPM_P2
2023/04/20 00:01:53;;;;;;;2.95;1.45;;;19.80;46.00;;;;;;5114093;28;20075;-69
2023/04/20 00:04:19;;;;;;;2.53;1.08;;;19.80;46.00;;;;;;5112594;28;20133;-69
2023/04/20 00:06:44;;;;;;;2.10;1.00;;;19.80;46.00;;;;;;5114033;28;20044;-69
2023/04/20 00:09:13;;;;;;;3.08;1.58;;;19.80;46.00;;;;;;5113640;28;20375;-69
2023/04/20 00:11:39;;;;;;;3.30;1.00;;;19.80;46.10;;;;;;5111592;28;20363;-69
2023/04/20 00:14:04;;;;;;;3.65;1.15;;;19.80;46.00;;;;;;5113416;28;20035;-69
2023/04/20 00:16:30;;;;;;;3.47;1.27;;;19.80;46.00;;;;;;5094549;28;20451;-69
2023/04/20 00:18:57;;;;;;;1.83;1.10;;;19.70;45.90;;;;;;5094797;28;20111;-69
2023/04/20 00:21:23;;;;;;;5.53;1.10;;;19.70;46.00;;;;;;5095739;28;20048;-68
2023/04/20 00:23:49;;;;;;;2.50;1.23;;;19.70;46.00;;;;;;5092996;28;20384;-68
2023/04/20 00:26:15;;;;;;;2.45;1.10;;;19.70;46.70;;;;;;5107350;28;20051;-69
2023/04/20 00:28:41;;;;;;;1.85;0.82;;;19.70;46.00;;;;;;5113684;28;20039;-68
2023/04/20 00:31:07;;;;;;;2.58;1.00;;;19.70;46.10;;;;;;5113026;28;20108;-69
2023/04/20 00:33:32;;;;;;;1.35;0.90;;;19.70;46.10;;;;;;5111924;28;20067;-68
2023/04/20 00:35:58;;;;;;;2.75;1.13;;;19.70;46.10;;;;;;5112898;28;20470;-69
2023/04/20 00:38:24;;;;;;;2.30;1.08;;;19.70;46.10;;;;;;5113758;28;20085;-69
2023/04/20 00:40:52;;;;;;;2.15;1.20;;;19.70;46.10;;;;;;5112415;28;20047;-69
2023/04/20 00:43:18;;;;;;;2.50;0.93;;;19.70;46.10;;;;;;5113146;28;20047;-69
2023/04/20 00:45:45;;;;;;;1.92;1.10;;;19.70;46.10;;;;;;5112262;28;20054;-69
2023/04/20 00:48:10;;;;;;;3.90;1.13;;;19.70;46.10;;;;;;5112513;28;20043;-69
2023/04/20 00:50:36;;;;;;;3.03;1.38;;;19.70;46.10;;;;;;5112854;28;20062;-69
2023/04/20 00:53:02;;;;;;;3.13;1.20;;;19.60;46.10;;;;;;5093574;28;20051;-69
2023/04/20 00:55:28;;;;;;;1.95;0.90;;;19.60;46.10;;;;;;5103324;28;20403;-69
2023/04/20 00:57:53;;;;;;;2.03;1.20;;;19.60;46.10;;;;;;5091783;28;20036;-69
2023/04/20 01:00:19;;;;;;;2.60;1.08;;;19.60;46.10;;;;;;5091800;28;20117;-69
2023/04/20 01:02:44;;;;;;;2.53;0.80;;;19.60;46.10;;;;;;5091595;28;20047;-69
2023/04/20 01:05:10;;;;;;;2.92;1.10;;;19.60;46.10;;;;;;5099701;28;20032;-69
2023/04/20 01:07:35;;;;;;;2.15;0.80;;;19.60;46.10;;;;;;5090254;28;20052;-69
2023/04/20 01:10:01;;;;;;;2.65;1.20;;;19.60;46.20;;;;;;5094137;28;20036;-69
2023/04/20 01:12:27;;;;;;;1.88;1.10;;;19.60;46.10;;;;;;5112917;28;20044;-70
2023/04/20 01:14:52;;;;;;;1.20;0.80;;;19.60;46.20;;;;;;5109557;28;20423;-69
2023/04/20 01:17:19;;;;;;;2.72;1.02;;;19.60;46.20;;;;;;5091984;28;20040;-70
2023/04/20 01:19:45;;;;;;;2.03;1.10;;;19.60;46.20;;;;;;5092141;28;20048;-69
2023/04/20 01:22:17;;;;;;;1.90;0.90;;;19.60;46.20;;;;;;5090845;28;20419;-69
2023/04/20 01:24:43;;;;;;;2.85;1.20;;;19.50;46.10;;;;;;5092625;28;20097;-69
2023/04/20 01:27:08;;;;;;;2.30;1.05;;;19.60;46.10;;;;;;5091817;28;20043;-69
2023/04/20 01:29:34;;;;;;;1.88;1.20;;;19.50;46.10;;;;;;5090475;28;20044;-69
2023/04/20 01:32:00;;;;;;;1.80;0.90;;;19.60;46.10;;;;;;5090927;28;20042;-69
2023/04/20 01:34:25;;;;;;;3.33;1.23;;;19.50;46.00;;;;;;5092372;28;20407;-69
2023/04/20 01:36:51;;;;;;;2.67;0.95;;;19.50;46.00;;;;;;5091554;28;20051;-69
2023/04/20 01:39:16;;;;;;;1.85;0.85;;;19.50;46.10;;;;;;5092041;28;20395;-69
2023/04/20 01:41:42;;;;;;;1.55;1.00;;;19.50;46.10;;;;;;5106656;28;20036;-69
2023/04/20 01:44:07;;;;;;;1.67;0.90;;;19.50;46.10;;;;;;5110229;28;20071;-69
2023/04/20 01:46:37;;;;;;;3.72;1.25;;;19.50;46.00;;;;;;5112699;28;20039;-69
2023/04/20 01:49:02;;;;;;;2.08;1.05;;;19.50;46.70;;;;;;5115376;28;20082;-69
2023/04/20 01:51:28;;;;;;;2.67;1.20;;;19.50;46.10;;;;;;5116407;28;20075;-69
2023/04/20 01:53:53;;;;;;;3.60;1.42;;;19.50;46.10;;;;;;5116472;28;20055;-69
2023/04/20 01:56:19;;;;;;;1.98;1.10;;;19.50;46.00;;;;;;5115139;28;20028;-69
2023/04/20 01:58:45;;;;;;;2.47;1.02;;;19.50;46.00;;;;;;5116603;28;20439;-69
2023/04/20 02:01:10;;;;;;;2.40;1.00;;;19.40;46.00;;;;;;5104848;28;20047;-69
2023/04/20 02:03:36;;;;;;;2.33;1.08;;;19.50;46.00;;;;;;5094859;28;20135;-69
2023/04/20 02:06:01;;;;;;;1.98;1.20;;;19.40;45.90;;;;;;5095352;28;20040;-69
2023/04/20 02:08:27;;;;;;;3.40;1.10;;;19.40;46.00;;;;;;5094604;28;20048;-69
2023/04/20 02:10:52;;;;;;;1.48;0.90;;;19.40;46.00;;;;;;5094732;28;20101;-69
2023/04/20 02:13:18;;;;;;;2.63;1.00;;;19.40;46.00;;;;;;5095538;28;20050;-69
2023/04/20 02:15:44;;;;;;;1.85;0.80;;;19.40;46.00;;;;;;5100320;28;20122;-69
2023/04/20 02:18:09;;;;;;;2.28;0.90;;;19.40;46.00;;;;;;5115216;28;20093;-69
2023/04/20 02:20:35;;;;;;;2.00;0.90;;;19.40;46.00;;;;;;5114302;28;20051;-68
2023/04/20 02:23:00;;;;;;;2.38;1.10;;;19.40;46.00;;;;;;5115428;28;20110;-68
2023/04/20 02:25:26;;;;;;;2.45;1.10;;;19.40;46.00;;;;;;5114702;28;20063;-68
2023/04/20 02:27:51;;;;;;;2.83;0.93;;;19.40;46.00;;;;;;5115786;28;20114;-68
2023/04/20 02:30:17;;;;;;;1.65;0.80;;;19.40;46.70;;;;;;5114450;28;20116;-68
2023/04/20 02:32:43;;;;;;;3.20;0.90;;;19.40;46.00;;;;;;5093264;28;20510;-68
2023/04/20 02:35:08;;;;;;;3.75;0.90;;;19.40;46.00;;;;;;5095048;28;20106;-68
2023/04/20 02:37:34;;;;;;;1.92;1.08;;;19.40;45.90;;;;;;5095546;28;20048;-68
2023/04/20 02:40:00;;;;;;;2.67;1.13;;;19.40;45.90;;;;;;5092786;28;20043;-68
2023/04/20 02:42:25;;;;;;;2.90;0.70;;;19.40;45.90;;;;;;5095509;28;20119;-68
2023/04/20 02:44:51;;;;;;;2.03;1.00;;;19.40;46.00;;;;;;5095179;28;20488;-68
2023/04/20 02:47:17;;;;;;;1.60;0.80;;;19.40;46.00;;;;;;5093871;28;20055;-68
2023/04/20 02:49:43;;;;;;;2.20;0.70;;;19.40;46.00;;;;;;5093932;28;20079;-68
2023/04/20 02:52:08;;;;;;;2.10;0.93;;;19.40;45.90;;;;;;5094602;28;20047;-68
2023/04/20 02:54:34;;;;;;;1.58;0.80;;;19.40;45.90;;;;;;5094522;28;20081;-68
2023/04/20 02:57:00;;;;;;;2.22;1.05;;;19.40;45.90;;;;;;5093797;28;20054;-68
2023/04/20 02:59:25;;;;;;;1.85;0.70;;;19.40;45.90;;;;;;5094075;28;20040;-68
2023/04/20 03:01:51;;;;;;;1.77;0.90;;;19.40;45.90;;;;;;5094898;28;20499;-68
2023/04/20 03:04:18;;;;;;;2.80;0.90;;;19.40;45.90;;;;;;5094494;28;20051;-67
2023/04/20 03:06:43;;;;;;;2.42;1.00;;;19.50;45.90;;;;;;5094041;28;20051;-68
2023/04/20 03:09:09;;;;;;;2.30;0.85;;;19.50;45.90;;;;;;5092969;28;20119;-68
2023/04/20 03:11:35;;;;;;;2.55;0.93;;;19.50;45.90;;;;;;5094673;28;20089;-68
2023/04/20 03:14:00;;;;;;;2.22;0.90;;;19.50;45.90;;;;;;5093612;28;20149;-68
2023/04/20 03:16:26;;;;;;;1.70;0.90;;;19.50;45.90;;;;;;5094509;28;20418;-68
2023/04/20 03:18:51;;;;;;;2.40;0.80;;;19.60;45.90;;;;;;5094270;28;20072;-68
2023/04/20 03:21:17;;;;;;;2.20;0.82;;;19.60;45.90;;;;;;5093394;28;20032;-68
2023/04/20 03:23:42;;;;;;;1.38;0.80;;;19.60;46.00;;;;;;5094295;28;20056;-68
2023/04/20 03:26:08;;;;;;;2.97;0.90;;;19.60;46.00;;;;;;5094198;28;20048;-68
2023/04/20 03:28:33;;;;;;;1.77;0.93;;;19.70;46.00;;;;;;5092378;28;20044;-68
2023/04/20 03:31:00;;;;;;;1.83;0.90;;;19.70;46.00;;;;;;5094126;28;20123;-68
2023/04/20 03:33:26;;;;;;;2.03;0.80;;;19.70;46.00;;;;;;5094021;28;20048;-68
2023/04/20 03:35:52;;;;;;;1.63;0.90;;;19.70;46.00;;;;;;5092078;28;20085;-68
2023/04/20 03:38:18;;;;;;;2.22;0.90;;;19.70;45.90;;;;;;5093918;28;20044;-68
2023/04/20 03:40:43;;;;;;;2.25;1.02;;;19.70;45.90;;;;;;5094290;28;20063;-68
2023/04/20 03:43:10;;;;;;;1.65;0.80;;;19.70;45.90;;;;;;5093041;28;20044;-68
2023/04/20 03:45:36;;;;;;;1.73;0.70;;;19.80;46.00;;;;;;5093999;28;20052;-68
2023/04/20 03:48:02;;;;;;;1.90;0.80;;;19.80;46.00;;;;;;5112487;28;20100;-68
2023/04/20 03:50:27;;;;;;;3.15;1.08;;;19.80;46.00;;;;;;5112184;28;20371;-68
2023/04/20 03:52:53;;;;;;;2.42;0.85;;;19.80;46.00;;;;;;5113769;28;20482;-68
2023/04/20 03:55:18;;;;;;;2.58;0.77;;;19.80;46.00;;;;;;5113721;28;20153;-68
2023/04/20 03:57:44;;;;;;;2.67;1.10;;;19.90;46.00;;;;;;5113318;28;20069;-68
2023/04/20 04:00:11;;;;;;;2.33;0.88;;;19.90;46.00;;;;;;5113691;28;20043;-68
2023/04/20 04:02:36;;;;;;;2.53;1.08;;;19.90;46.00;;;;;;5092939;28;20044;-68
2023/04/20 04:05:02;;;;;;;2.05;1.20;;;19.90;46.00;;;;;;5090853;28;20040;-68
2023/04/20 04:07:28;;;;;;;2.22;1.10;;;19.90;46.00;;;;;;5093058;28;20040;-68
2023/04/20 04:09:53;;;;;;;2.28;1.00;;;19.90;45.90;;;;;;5100925;28;20097;-69
2023/04/20 04:12:19;;;;;;;2.97;1.10;;;19.90;45.90;;;;;;5100739;28;20048;-69
2023/04/20 04:14:45;;;;;;;4.22;1.17;;;20.00;46.00;;;;;;5093699;28;20036;-69
2023/04/20 04:17:12;;;;;;;2.20;1.13;;;20.00;45.90;;;;;;5092368;28;20407;-69
2023/04/20 04:19:37;;;;;;;2.50;0.80;;;20.00;45.90;;;;;;5093720;28;20044;-68
2023/04/20 04:22:03;;;;;;;3.75;1.20;;;20.00;45.90;;;;;;5092828;28;20056;-69
2023/04/20 04:24:28;;;;;;;2.38;1.13;;;20.00;45.90;;;;;;5092502;28;20048;-69
2023/04/20 04:26:55;;;;;;;2.58;0.93;;;20.00;45.80;;;;;;5093116;28;20055;-68
2023/04/20 04:29:21;;;;;;;2.65;1.20;;;20.00;45.80;;;;;;5093405;28;20079;-68
2023/04/20 04:31:46;;;;;;;1.85;0.93;;;20.10;45.80;;;;;;5092462;28;20076;-68
2023/04/20 04:34:12;;;;;;;1.77;0.90;;;20.00;45.70;;;;;;5092975;28;20048;-68
2023/04/20 04:36:38;;;;;;;2.72;1.15;;;20.00;45.70;;;;;;5096917;28;20038;-69
2023/04/20 04:39:03;;;;;;;2.67;0.90;;;20.10;45.70;;;;;;5112349;28;20047;-68
2023/04/20 04:41:29;;;;;;;2.65;1.20;;;20.10;45.70;;;;;;5111802;28;20058;-68
2023/04/20 04:43:54;;;;;;;2.72;0.93;;;20.10;45.70;;;;;;5113347;28;20127;-68
2023/04/20 04:46:21;;;;;;;2.78;1.40;;;20.10;45.70;;;;;;5112383;28;20083;-68
2023/04/20 04:48:46;;;;;;;3.83;1.08;;;20.10;45.70;;;;;;5113404;28;20071;-68
2023/04/20 04:51:12;;;;;;;1.40;0.90;;;20.10;45.70;;;;;;5112585;28;20040;-68
2023/04/20 04:53:38;;;;;;;1.75;0.90;;;20.10;45.70;;;;;;5112372;28;20061;-68
2023/04/20 04:56:03;;;;;;;2.58;1.30;;;20.10;45.80;;;;;;5112903;28;20047;-68
2023/04/20 04:58:29;;;;;;;2.70;1.20;;;20.10;45.80;;;;;;5103310;28;20534;-68
2023/04/20 05:00:55;;;;;;;2.42;1.08;;;20.10;45.70;;;;;;5111985;28;20040;-68
2023/04/20 05:03:21;;;;;;;2.05;0.90;;;20.10;45.70;;;;;;5093073;28;20411;-68
2023/04/20 05:05:46;;;;;;;1.70;0.93;;;20.10;45.70;;;;;;5092666;28;20114;-68
2023/04/20 05:08:12;;;;;;;3.22;1.30;;;20.10;45.80;;;;;;5091589;28;20134;-68
2023/04/20 05:10:37;;;;;;;2.55;1.00;;;20.20;45.70;;;;;;5092626;28;20119;-68
2023/04/20 05:13:03;;;;;;;2.35;0.80;;;20.10;45.80;;;;;;5091183;28;20072;-68
2023/04/20 05:15:28;;;;;;;2.90;1.20;;;20.20;45.70;;;;;;5091011;28;20063;-68
2023/04/20 05:17:54;;;;;;;3.17;1.45;;;20.20;45.70;;;;;;5092566;28;20115;-68
2023/04/20 05:20:20;;;;;;;1.90;0.90;;;20.20;45.80;;;;;;5091208;28;20048;-68
2023/04/20 05:22:46;;;;;;;1.98;1.00;;;20.20;46.50;;;;;;5103505;28;20509;-68
2023/04/20 05:25:11;;;;;;;2.83;1.05;;;20.20;45.70;;;;;;5112378;28;20123;-68
2023/04/20 05:27:37;;;;;;;2.35;0.90;;;20.20;45.70;;;;;;5104297;28;20078;-68
2023/04/20 05:30:03;;;;;;;2.63;1.20;;;20.20;45.60;;;;;;5092108;28;20066;-68
2023/04/20 05:32:28;;;;;;;2.67;0.80;;;20.20;45.60;;;;;;5092525;28;20123;-68
2023/04/20 05:34:54;;;;;;;1.92;0.90;;;20.20;45.60;;;;;;5091628;28;20048;-68
2023/04/20 05:37:20;;;;;;;2.03;1.13;;;20.20;45.60;;;;;;5091919;28;20071;-68
2023/04/20 05:39:45;;;;;;;2.15;1.13;;;20.20;45.60;;;;;;5092144;28;20048;-68
2023/04/20 05:42:11;;;;;;;1.83;0.77;;;20.20;45.60;;;;;;5091393;28;20501;-69
2023/04/20 05:44:38;;;;;;;3.10;1.30;;;20.20;45.60;;;;;;5092001;28;20447;-69
2023/04/20 05:47:05;;;;;;;1.65;0.85;;;20.20;45.60;;;;;;5091716;28;20445;-69
2023/04/20 05:49:31;;;;;;;2.08;1.00;;;20.30;45.50;;;;;;5091585;28;20036;-69
2023/04/20 05:51:57;;;;;;;2.65;1.08;;;20.20;45.50;;;;;;5094108;28;20047;-69
2023/04/20 05:54:22;;;;;;;1.40;0.90;;;20.20;45.40;;;;;;5112490;28;20066;-69
2023/04/20 05:56:48;;;;;;;3.42;1.02;;;20.20;45.40;;;;;;5107548;28;20093;-68
2023/04/20 05:59:14;;;;;;;1.90;0.80;;;20.20;45.40;;;;;;5090360;28;20047;-68
2023/04/20 06:01:40;;;;;;;2.60;0.90;;;20.20;45.40;;;;;;5092257;28;20101;-69
2023/04/20 06:04:05;;;;;;;1.77;1.00;;;20.30;45.50;;;;;;5090819;28;20495;-68
2023/04/20 06:06:31;;;;;;;1.98;1.08;;;20.20;45.40;;;;;;5091813;28;20040;-69
2023/04/20 06:08:57;;;;;;;1.35;0.90;;;20.30;45.50;;;;;;5091571;28;20077;-69
2023/04/20 06:11:22;;;;;;;1.80;0.80;;;20.30;45.50;;;;;;5091309;28;20036;-68
2023/04/20 06:13:48;;;;;;;1.48;0.82;;;20.30;46.20;;;;;;5108593;28;20079;-68
2023/04/20 06:16:13;;;;;;;3.55;1.20;;;20.30;45.40;;;;;;5109901;28;20032;-69
2023/04/20 06:18:39;;;;;;;2.53;1.15;;;20.30;45.40;;;;;;5112169;28;20040;-69
2023/04/20 06:21:05;;;;;;;2.97;0.88;;;20.30;45.40;;;;;;5110574;28;20475;-69
2023/04/20 06:23:30;;;;;;;4.13;1.00;;;20.30;45.30;;;;;;5109760;28;20070;-69
2023/04/20 06:25:56;;;;;;;2.13;0.90;;;20.30;45.40;;;;;;5111945;28;20042;-68
2023/04/20 06:28:21;;;;;;;3.00;1.23;;;20.30;45.40;;;;;;5106646;28;20043;-69
2023/04/20 06:30:47;;;;;;;2.83;1.10;;;20.30;45.50;;;;;;5111627;28;20039;-69
2023/04/20 06:33:15;;;;;;;2.53;1.23;;;20.30;45.60;;;;;;5101867;28;20054;-69
2023/04/20 06:35:42;;;;;;;3.90;1.30;;;20.30;45.60;;;;;;5093738;28;20468;-69
2023/04/20 06:38:07;;;;;;;4.80;1.10;;;20.30;45.70;;;;;;5094403;28;20069;-69
2023/04/20 06:40:33;;;;;;;3.22;1.38;;;20.30;45.70;;;;;;5095345;28;20074;-69
2023/04/20 06:42:58;;;;;;;4.25;1.05;;;20.30;45.80;;;;;;5094927;28;20066;-69
2023/04/20 06:45:24;;;;;;;5.57;1.10;;;20.30;45.80;;;;;;5094542;28;20040;-68
2023/04/20 06:47:49;;;;;;;5.15;1.35;;;20.30;45.80;;;;;;5095180;28;20032;-69
2023/04/20 06:50:15;;;;;;;3.53;1.10;;;20.30;45.90;;;;;;5094928;28;20040;-69
2023/04/20 06:52:41;;;;;;;4.35;1.17;;;20.30;45.80;;;;;;5099354;28;20035;-69
2023/04/20 06:55:07;;;;;;;3.30;1.10;;;20.40;45.90;;;;;;5115229;28;20058;-69
2023/04/20 06:57:32;;;;;;;5.60;1.20;;;20.40;46.00;;;;;;5113931;28;20054;-71
2023/04/20 06:59:58;;;;;;;3.20;1.20;;;20.30;46.00;;;;;;5097915;28;20044;-66
2023/04/20 07:02:24;;;;;;;4.32;1.10;;;20.40;46.20;;;;;;5094875;28;20047;-67
2023/04/20 07:04:49;;;;;;;5.75;1.00;;;20.40;46.30;;;;;;5093741;28;20063;-72
2023/04/20 07:07:15;;;;;;;5.72;1.25;;;20.40;46.40;;;;;;5092046;28;20040;-67
2023/04/20 07:09:41;;;;;;;2.28;0.98;;;20.40;46.50;;;;;;5092607;28;20092;-66
2023/04/20 07:12:06;;;;;;;4.40;1.30;;;20.40;46.50;;;;;;5094314;28;20344;-67
2023/04/20 07:14:32;;;;;;;2.47;1.10;;;20.40;46.60;;;;;;5103169;28;20039;-66
2023/04/20 07:16:57;;;;;;;4.93;1.10;;;20.40;46.60;;;;;;5113055;28;20428;-65
2023/04/20 07:19:23;;;;;;;5.35;0.90;;;20.40;46.50;;;;;;5095104;28;20040;-70
2023/04/20 07:21:49;;;;;;;8.65;1.73;;;20.40;46.50;;;;;;5092031;28;20048;-67
2023/04/20 07:24:15;;;;;;;4.72;1.58;;;20.40;46.60;;;;;;5094222;28;20134;-66
2023/04/20 07:26:41;;;;;;;3.95;1.00;;;20.50;46.80;;;;;;5093420;28;20139;-66
2023/04/20 07:29:07;;;;;;;3.28;1.08;;;20.50;46.90;;;;;;5099901;28;20080;-66
2023/04/20 07:31:32;;;;;;;2.78;1.00;;;20.50;47.00;;;;;;5114404;28;20035;-66
2023/04/20 07:33:58;;;;;;;4.65;1.33;;;20.50;47.00;;;;;;5098213;28;20044;-64
2023/04/20 07:36:23;;;;;;;4.40;1.20;;;20.50;47.10;;;;;;5094296;28;20119;-65
2023/04/20 07:38:49;;;;;;;3.20;1.17;;;20.50;47.10;;;;;;5094074;28;20127;-65
2023/04/20 07:41:14;;;;;;;4.05;1.30;;;20.50;47.00;;;;;;5092182;28;20044;-65
2023/04/20 07:43:40;;;;;;;6.68;1.40;;;20.50;47.00;;;;;;5093845;28;20036;-65
2023/04/20 07:46:06;;;;;;;3.67;1.10;;;20.50;47.10;;;;;;5093543;28;20082;-66
2023/04/20 07:48:35;;;;;;;4.43;1.40;;;20.50;47.20;;;;;;5093505;28;20094;-65
2023/04/20 07:51:00;;;;;;;5.03;1.75;;;20.50;47.20;;;;;;5093639;28;20142;-65
2023/04/20 07:53:27;;;;;;;3.88;1.33;;;20.60;47.20;;;;;;5102143;28;20545;-65
2023/04/20 07:55:53;;;;;;;3.95;1.17;;;20.60;47.20;;;;;;5111894;28;20081;-64
2023/04/20 07:58:20;;;;;;;3.40;1.23;;;20.60;47.20;;;;;;5105085;28;20075;-65
2023/04/20 08:00:46;;;;;;;2.13;1.10;;;20.50;47.20;;;;;;5093733;28;20039;-65
2023/04/20 08:03:12;;;;;;;3.25;1.33;;;20.60;47.30;;;;;;5092562;28;20040;-65
2023/04/20 08:05:38;;;;;;;2.28;1.23;;;20.50;47.30;;;;;;5093584;28;20055;-65
2023/04/20 08:08:03;;;;;;;3.28;1.42;;;20.50;47.30;;;;;;5097746;28;20522;-66
2023/04/20 08:10:29;;;;;;;5.22;1.40;;;20.50;47.20;;;;;;5113211;28;20039;-66
2023/04/20 08:12:55;;;;;;;4.25;1.63;;;20.50;47.30;;;;;;5113263;28;20035;-66
2023/04/20 08:15:20;;;;;;;3.78;1.30;;;20.50;47.30;;;;;;5113686;28;20447;-66
2023/04/20 08:17:46;;;;;;;3.17;1.17;;;20.50;47.40;;;;;;5111708;28;20047;-65
2023/04/20 08:20:11;;;;;;;4.90;1.30;;;20.50;47.40;;;;;;5113082;28;20040;-65
2023/04/20 08:22:37;;;;;;;3.97;1.67;;;20.50;47.30;;;;;;5113185;28;20134;-66
2023/04/20 08:25:05;;;;;;;2.42;1.20;;;20.50;47.40;;;;;;5112248;28;20043;-66
2023/04/20 08:27:30;;;;;;;2.75;1.27;;;20.50;47.40;;;;;;5113874;28;20070;-66
2023/04/20 08:29:56;;;;;;;3.38;1.25;;;20.50;47.50;;;;;;5112370;28;20124;-66
2023/04/20 08:32:24;;;;;;;2.95;1.20;;;20.50;47.50;;;;;;5112081;28;20044;-66
2023/04/20 08:34:49;;;;;;;5.70;1.40;;;20.50;47.50;;;;;;5113090;28;20044;-66
2023/04/20 08:37:15;;;;;;;3.15;1.45;;;20.50;47.50;;;;;;5110877;28;20054;-66
2023/04/20 08:39:40;;;;;;;2.88;1.38;;;20.50;47.50;;;;;;5111767;28;20066;-66
2023/04/20 08:42:06;;;;;;;3.90;1.33;;;20.50;47.50;;;;;;5112861;28;20040;-66
2023/04/20 08:44:31;;;;;;;2.58;1.60;;;20.50;47.50;;;;;;5111001;28;20047;-66
2023/04/20 08:46:58;;;;;;;2.80;1.20;;;20.50;47.50;;;;;;5112986;28;20043;-66
2023/04/20 08:49:23;;;;;;;3.13;1.40;;;20.50;47.50;;;;;;5112833;28;20043;-66
2023/04/20 08:51:50;;;;;;;3.85;1.10;;;20.50;47.50;;;;;;5111097;28;20126;-66
2023/04/20 08:54:16;;;;;;;2.50;1.30;;;20.50;47.50;;;;;;5097685;28;20052;-66
2023/04/20 08:56:43;;;;;;;6.20;1.40;;;20.50;47.50;;;;;;5092225;28;20032;-68
2023/04/20 08:59:13;;;;;;;2.90;1.60;;;20.40;47.50;;;;;;5089657;28;20526;-68
2023/04/20 09:01:40;;;;;;;6.30;1.50;;;20.40;47.40;;;;;;5091208;28;20047;-67
2023/04/20 09:04:21;;;;;;;3.28;1.20;;;20.40;47.30;;;;;;5091501;28;20411;-67
2023/04/20 09:06:51;;;;;;;3.58;1.27;;;20.40;47.30;;;;;;5091097;28;20054;-67
2023/04/20 09:09:21;;;;;;;4.07;0.93;;;20.40;47.40;;;;;;5090619;28;20468;-67
2023/04/20 09:11:47;;;;;;;3.08;1.10;;;20.40;47.50;;;;;;5091681;28;20078;-67
2023/04/20 09:14:14;;;;;;;4.43;1.40;;;20.40;47.60;;;;;;5090592;28;20060;-69
2023/04/20 09:16:50;;;;;;;3.97;1.40;;;20.40;47.70;;;;;;5091137;28;20050;-66
2023/04/20 09:19:23;;;;;;;3.95;1.48;;;20.40;47.90;;;;;;5089270;28;20043;-66
2023/04/20 09:21:49;;;;;;;3.53;1.25;;;20.50;48.00;;;;;;5091371;28;20036;-67
2023/04/20 09:24:15;;;;;;;3.58;1.30;;;20.50;48.00;;;;;;5090573;28;20055;-68
2023/04/20 09:26:41;;;;;;;6.20;1.30;;;20.50;48.20;;;;;;5091736;28;20089;-70
2023/04/20 09:29:20;;;;;;;4.85;1.50;;;20.50;48.20;;;;;;5091843;28;20044;-70
2023/04/20 09:31:46;;;;;;;4.53;1.35;;;20.50;48.20;;;;;;5091707;28;20051;-67
2023/04/20 09:34:12;;;;;;;3.85;1.33;;;20.40;48.00;;;;;;5090708;28;20072;-66
2023/04/20 09:36:38;;;;;;;3.25;1.45;;;20.40;48.10;;;;;;5090525;28;20090;-64
2023/04/20 09:39:09;;;;;;;4.57;1.65;;;20.40;48.10;;;;;;5091233;28;20062;-67
2023/04/20 09:41:35;;;;;;;6.32;1.60;;;20.40;48.20;;;;;;5091689;28;20090;-68
2023/04/20 09:44:01;;;;;;;6.50;1.38;;;20.40;48.20;;;;;;5091898;28;20044;-68
2023/04/20 09:46:28;;;;;;;3.38;1.40;;;20.40;48.10;;;;;;5091036;28;20043;-71
2023/04/20 09:48:54;;;;;;;3.57;1.50;;;20.40;48.80;;;;;;5091773;28;20044;-66
2023/04/20 09:51:20;;;;;;;4.07;1.17;;;20.40;48.20;;;;;;5073819;28;20094;-67
2023/04/20 09:53:45;;;;;;;5.05;1.48;;;20.40;48.20;;;;;;5096421;28;20043;-67
2023/04/20 09:56:11;;;;;;;4.60;1.75;;;20.40;48.20;;;;;;5111212;28;20039;-68
2023/04/20 09:58:37;;;;;;;4.38;1.48;;;20.40;48.20;;;;;;5111010;28;20482;-68
2023/04/20 10:01:02;;;;;;;3.38;1.65;;;20.40;48.20;;;;;;5111077;28;20479;-68
2023/04/20 10:03:28;;;;;;;6.63;1.60;;;20.40;48.10;;;;;;5111552;28;20483;-67
2023/04/20 10:05:54;;;;;;;3.58;1.50;;;20.40;48.10;;;;;;5111145;28;20088;-68
2023/04/20 10:08:20;;;;;;;3.17;1.40;;;20.40;48.20;;;;;;5114546;28;20491;-68
2023/04/20 10:10:47;;;;;;;3.33;1.50;;;20.40;48.20;;;;;;5097935;28;20088;-68
2023/04/20 10:13:13;;;;;;;2.90;1.52;;;20.30;48.20;;;;;;5114445;28;20050;-68
2023/04/20 10:15:40;;;;;;;5.20;1.58;;;20.30;48.20;;;;;;5115636;28;20040;-67
2023/04/20 10:18:17;;;;;;;4.38;1.70;;;20.30;48.90;;;;;;5115768;28;20050;-67
2023/04/20 10:20:43;;;;;;;4.85;1.50;;;20.30;48.20;;;;;;5094160;28;20055;-67
2023/04/20 10:23:10;;;;;;;2.45;1.25;;;20.30;48.20;;;;;;5094223;28;20052;-67
2023/04/20 10:25:35;;;;;;;3.85;1.67;;;20.30;48.20;;;;;;5094242;28;20078;-72
2023/04/20 10:28:04;;;;;;;4.22;1.60;;;20.30;48.20;;;;;;5095045;28;20040;-67
2023/04/20 10:30:30;;;;;;;6.18;2.33;;;20.30;48.20;;;;;;5094993;28;20039;-67
2023/04/20 10:33:06;;;;;;;7.22;2.50;;;20.30;48.30;;;;;;5093913;28;20070;-67
2023/04/20 10:35:43;;;;;;;4.07;2.08;;;20.30;48.20;;;;;;5095299;28;20047;-66
2023/04/20 10:38:10;;;;;;;6.47;2.90;;;20.30;48.20;;;;;;5094170;28;20072;-67
2023/04/20 10:40:35;;;;;;;8.20;2.70;;;20.30;48.20;;;;;;5095420;28;20054;-66
2023/04/20 10:43:01;;;;;;;7.43;2.95;;;20.30;48.20;;;;;;5095128;28;20126;-66
2023/04/20 10:45:35;;;;;;;5.70;2.67;;;20.30;48.40;;;;;;5094744;28;20119;-66
2023/04/20 10:48:09;;;;;;;5.40;2.55;;;20.30;48.40;;;;;;5093647;28;20054;-67
2023/04/20 10:50:38;;;;;;;10.48;3.17;;;20.30;48.50;;;;;;5094467;28;20119;-67
2023/04/20 10:53:03;;;;;;;;;;;20.30;48.40;;;;;;5095254;28;20044;-67
2023/04/20 10:55:29;;;;;;;7.60;2.63;;;20.30;48.30;;;;;;5095032;28;19924;-67
2023/04/20 10:57:55;;;;;;;5.85;2.65;;;20.30;48.40;;;;;;5094044;28;20075;-70
2023/04/20 11:00:25;;;;;;;12.82;2.72;;;20.30;48.30;;;;;;5094900;28;20039;-68
2023/04/20 11:02:52;;;;;;;5.25;2.25;;;20.30;48.20;;;;;;5095200;28;20495;-67
2023/04/20 11:05:18;;;;;;;8.00;2.90;;;20.30;48.30;;;;;;5093260;28;20133;-70
2023/04/20 11:07:51;;;;;;;5.63;2.65;;;20.30;48.30;;;;;;5095152;28;20044;-68
2023/04/20 11:10:17;;;;;;;7.55;2.63;;;20.40;48.40;;;;;;5094792;28;20036;-71
2023/04/20 11:12:43;;;;;;;8.80;2.45;;;20.40;48.20;;;;;;5094335;28;20074;-71
2023/04/20 11:15:09;;;;;;;7.57;2.90;;;20.40;48.10;;;;;;5093471;28;20119;-71
2023/04/20 11:17:35;;;;;;;6.25;2.30;;;20.40;48.00;;;;;;5094362;28;20044;-70
2023/04/20 11:20:15;;;;;;;5.22;2.50;;;20.40;47.90;;;;;;5093790;28;20042;-70
2023/04/20 11:22:41;;;;;;;6.97;2.80;;;20.40;47.80;;;;;;5094377;28;20080;-70
2023/04/20 11:25:10;;;;;;;8.13;2.63;;;20.40;47.90;;;;;;5094834;28;20596;-71
2023/04/20 11:27:36;;;;;;;7.05;2.30;;;20.40;47.70;;;;;;5094055;28;20107;-70
2023/04/20 11:30:06;;;;;;;6.22;2.38;;;20.40;47.80;;;;;;5093468;28;20122;-70
2023/04/20 11:32:32;;;;;;;6.18;2.50;;;20.40;47.80;;;;;;5094691;28;20044;-70
2023/04/20 11:34:59;;;;;;;5.95;2.45;;;20.40;47.80;;;;;;5093841;28;20054;-70
2023/04/20 11:37:25;;;;;;;6.88;2.30;;;20.40;47.70;;;;;;5094703;28;20089;-70
2023/04/20 11:40:09;;;;;;;4.03;2.10;;;20.40;48.40;;;;;;5094036;28;20051;-71
2023/04/20 11:42:35;;;;;;;4.53;2.28;;;20.40;48.30;;;;;;5094762;28;20148;-70
2023/04/20 11:45:01;;;;;;;6.10;2.17;;;20.30;47.60;;;;;;5092882;28;20040;-70
2023/04/20 11:47:27;;;;;;;3.65;2.40;;;20.30;47.50;;;;;;5093391;28;20394;-70
2023/04/20 11:49:52;;;;;;;5.18;2.28;;;20.30;47.50;;;;;;5094505;28;20483;-70
2023/04/20 11:52:18;;;;;;;4.45;2.10;;;20.30;47.50;;;;;;5093716;28;20044;-70
2023/04/20 11:54:43;;;;;;;7.03;2.28;;;20.30;47.50;;;;;;5093612;28;20050;-70
2023/04/20 11:57:09;;;;;;;6.53;2.50;;;20.30;47.50;;;;;;5093909;28;20047;-70
2023/04/20 11:59:35;;;;;;;6.63;2.28;;;20.30;47.50;;;;;;5093858;28;20040;-70
2023/04/20 12:02:02;;;;;;;5.45;2.20;;;20.30;47.50;;;;;;5093204;28;20050;-71
2023/04/20 12:04:32;;;;;;;5.70;2.15;;;20.30;47.50;;;;;;5094047;28;20040;-71
2023/04/20 12:06:58;;;;;;;6.90;2.70;;;20.30;47.50;;;;;;5093621;28;20198;-70
2023/04/20 12:09:25;;;;;;;5.18;2.45;;;20.30;47.40;;;;;;5093460;28;20070;-71
2023/04/20 12:11:50;;;;;;;5.10;2.10;;;20.30;47.40;;;;;;5094166;28;20487;-70
2023/04/20 12:14:16;;;;;;;5.18;2.15;;;20.30;47.40;;;;;;5093503;28;20051;-70
2023/04/20 12:16:41;;;;;;;3.45;2.00;;;20.30;47.30;;;;;;5091797;28;20047;-70
2023/04/20 12:19:07;;;;;;;5.40;2.65;;;20.40;47.30;;;;;;5093400;28;20040;-70
2023/04/20 12:21:33;;;;;;;5.90;2.30;;;20.40;47.20;;;;;;5093628;28;20048;-70
2023/04/20 12:23:59;;;;;;;6.40;2.58;;;20.40;47.20;;;;;;5092314;28;20051;-70
2023/04/20 12:26:25;;;;;;;5.18;2.28;;;20.40;47.10;;;;;;5093594;28;20047;-70
2023/04/20 12:28:51;;;;;;;4.95;2.20;;;20.40;47.10;;;;;;5093427;28;20708;-70
2023/04/20 12:31:16;;;;;;;5.20;2.30;;;20.40;47.10;;;;;;5092099;28;20047;-70
2023/04/20 12:33:43;;;;;;;3.22;1.92;;;20.40;47.80;;;;;;5093694;28;20377;-70
2023/04/20 12:36:09;;;;;;;5.18;2.25;;;20.40;47.80;;;;;;5092172;28;20044;-70
2023/04/20 12:38:35;;;;;;;5.15;1.98;;;20.40;47.10;;;;;;5093433;28;20115;-70
2023/04/20 12:41:00;;;;;;;3.45;2.15;;;20.40;47.10;;;;;;5093087;28;20052;-70
2023/04/20 12:43:27;;;;;;;7.00;2.80;;;20.40;47.00;;;;;;5092474;28;20050;-70